Melrose Vista, Florida
Current Conditions -  °F | °C
As of 7:53 PM on Friday 19 Dec 2014 (Local Time) from KFLL Reporting Station
Broken Clouds Broken Clouds  
Wind Chill: 71°   Ceiling: 30000
Heat Index: 71°   Visibility: 10mi
Dew Point: 61°   Wind: 8mph
Humidity: 70%   Direction: 130°SE
Pressure: 30.07"   Gusts: NA
Location:  26.0861°N, 80.1822°W
Report Text: KFLL 200053Z 13007KT 10SM FEW045 BKN300 22/16 A3007 RMK AO2 SLP183 T02170161
Loading
Personal Weather Stations






























Interactive Weather Map New forecast layout! Learn more

10-Day Weather Forecast

Advertisements
Track Severe Weather on mobile